Newton, NC (28658)

11:30 AM EDT on September 05, 2015 (GMT -0400)
Blue Ridge Foothills - N1PD | | Change Station
CLOSE
Current Station
Personal Weather Station
Location: Newton, NC
Elevation: 1050 ft
Nearby Weather Stations

Elev 1050 ft 35.65 °N, 81.13 °W | Updated 5 seconds ago

Overcast
Overcast
76.9 °F
Feels Like 79 °F
N
4.0
Wind Variable Wind from NE
Gusts 6.0 mph

Today
High -- | Low -- °F
--% Chance of Precip.
Yesterday
High -- | Low -- °F
Precip. -- in
6:59 AM 7:46 PM
Waning Gibbous, 47% visible
Pressure 30.22 in
Visibility 7.0 miles
Clouds Few 1400 ft
Scattered Clouds 2500 ft
Mostly Cloudy 3100 ft
Heat Index 79 °F
Dew Point 68 °F
Humidity 75%
Rainfall 0.00 in
Snow Depth Not available.
UV 4 out of 12
Pollen 7.00 out of 12
Air Quality Not available.
Flu Activity Not available.
SPECI KHKY 051509Z 07007KT 7SM FEW014 SCT025 BKN031 25/19 A3022 RMK AO2 T02500194
Pressure 30.22 in
Visibility 7.0 miles
Clouds Few 1400 ft
Scattered Clouds 2500 ft
Mostly Cloudy 3100 ft
Heat Index 79 °F
Dew Point 68 °F
Humidity 75%
Rainfall 0.00 in
Snow Depth Not available.
UV 4 out of 12
Pollen 7.00 out of 12
Air Quality Not available.
Flu Activity Not available.
SPECI KHKY 051509Z 07007KT 7SM FEW014 SCT025 BKN031 25/19 A3022 RMK AO2 T02500194

10-Day Weather Forecast

×

Almanac

Astronomy

Sep. 05, 2015 Rise Set
Actual Time
Civil Twilight
Nautical Twilight
Astronomical Twilight
Moon
Length of Visible Light
Length of Day
Tomorrow will be .
, % of the Moon is Illuminated

Today's Extremes

State Highs State Lows

Community

WunderPhotos

Upload Photos

1,852,482 photos uploaded!

WunderBlogs® & News

Nearby

Air Quality

  Air Quality AQ Index Pollutant
Not available.

Snow Depth

Station Depth Elevation

Earthquake Activity

City Distance Mag. Time & Date
Minimum magnitude displayed is 2.5.

Coastal Water Temperatures

Place Temperature

Stations

Nearby Weather Stations

Station Location Temp. Windchill Dew Point Humidity Wind Precip. Elev Updated Type